Tiempo atmosférico en la estación meteorológica de Gijón, Campus, Asturias (26 m.)



Fecha
DESCASC
Temp. máxima en grados centígrados (hora)
DESCASC
Temp. mínima en grados centígrados (hora)
DESCASC
Temp. media en grados centígrados
DESCASC
Racha de viento máxima en m/sg (hora)
DESCASC
Velocidad máxima media en intervalos de 10 minutos(hora)
DESCASC
Precipitaciones diarias en mm
DESCASC
Precipitaciones de 00:00 a 06:00 en mm
DESCASC
Precipitaciones de 06:00 a 12:00 en mm
DESCASC
Precipitaciones de 12:00 a 18:00 en mm
DESCASC
Precipitaciones de 18:00 a 24:00 en mm
DESCASC
05-12-2019 11.6 (17:10) 7.5 (05:30) 9.6 3.06 (21:00) 1.39 (21:00) -- 1.8 -- 0 0
04-12-2019 11.6 (14:30) -0.9 (07:20) 5.4 -- (--) -- (--) -- -- 0 -- 0
03-12-2019 11.7 (14:00) 1.3 (00:00) 6.5 8.33 (14:40) 4.17 (12:40) 0 0 0 0 0
02-12-2019 11.1 (12:40) 7 (00:00) 9.1 11.67 (09:30) 5.28 (08:30) 12.8 6.4 6.4 0 0
01-12-2019 11.2 (11:00) 6.3 (00:00) 8.8 11.67 (17:00) 7.22 (17:00) 15 0.8 3.2 10.4 0.6
30-11-2019 16.7 (14:50) 7.6 (00:00) 12.2 12.22 (15:40) 6.39 (15:40) 21.2 1 20.2 0 0
29-11-2019 17.7 (13:50) 8.8 (00:00) 13.3 5.28 (16:00) 3.06 (16:00) 0 0 0 0 0
28-11-2019 15 (00:00) 12.3 (00:00) 13.7 9.44 (05:00) 3.61 (05:00) 7.2 0 0 3.6 3.6
27-11-2019 16.7 (13:00) 11.5 (00:00) 14.1 12.5 (03:20) 6.67 (03:20) 0.8 0 0 0.2 0.6
26-11-2019 19.8 (14:00) 7.7 (00:00) 13.7 15.28 (23:00) 8.61 (22:50) 1 0 0 0 1
25-11-2019 16.9 (14:50) 7.8 (00:00) 12.3 6.94 (13:30) 3.33 (12:40) 0 0 0 0 0
24-11-2019 14.3 (23:00) 8.9 (00:00) 11.6 7.5 (02:10) 3.06 (02:10) 1.6 0.2 0 0.6 0.8
23-11-2019 12.5 (14:30) 9.3 (00:00) 10.9 18.33 (02:40) 8.61 (04:30) 48.4 28.4 2.8 13 4.2
22-11-2019 20 (13:20) 5.6 (00:00) 12.8 12.5 (13:40) 6.39 (16:10) 9 0.6 3 0 5.4
21-11-2019 15.9 (15:10) 5.3 (00:00) 10.6 10.56 (14:20) 5.83 (14:20) 0 0 0 0 0
20-11-2019 13.1 (15:30) 4.7 (00:00) 8.9 2.78 (04:20) 1.94 (19:50) 0.2 0.2 0 0 0
19-11-2019 14.5 (15:30) 1.7 (00:00) 8.1 2.78 (15:50) 2.22 (15:50) 0.2 0 0 0 0.2
18-11-2019 12.9 (16:00) 7.9 (00:00) 10.4 5.28 (11:50) 2.5 (11:50) 2 0.6 0 1.4 0
17-11-2019 13.6 (15:00) 8.3 (00:00) 11 11.11 (16:40) 5.56 (15:20) 8 0 2 2.8 3.2
16-11-2019 12 (15:00) 6.4 (00:00) 9.2 10.56 (15:50) 5.28 (13:10) 5.4 3 1.6 0.6 0.2
15-11-2019 11 (06:50) 6 (00:00) 8.5 18.33 (06:30) 9.72 (04:00) -- -- 7.6 11.2 9.6
14-11-2019 11.6 (12:50) 5.7 (00:00) 8.7 12.5 (06:00) 6.11 (02:00) 30.2 10.6 0.2 9.8 9.6
13-11-2019 14.1 (21:00) 9 (00:00) 11.6 18.33 (22:20) 6.67 (22:20) -- -- 2.2 0.2 13.2
12-11-2019 -- (--) -- (--) -- -- (--) -- (--) -- -- -- -- --
11-11-2019 -- (--) -- (--) -- -- (--) -- (--) -- -- -- 0.2 0
10-11-2019 12.2 (13:50) 7.8 (00:00) 10 14.44 (13:10) 7.5 (13:10) -- 6.4 5 -- 0.4
09-11-2019 16.9 (12:10) 8.9 (00:00) 12.9 13.61 (20:50) 6.67 (15:10) 12.4 0 1.2 3.8 7.4
08-11-2019 13.1 (13:50) 7 (00:00) 10.1 15 (13:10) 5.28 (13:10) 37.8 14 9.8 4 10

Gráficas

Temp. máximas Temp. mínimas Temp. medias Precipitaciones Rachas de viento máximas Velocidades máximas media en intervalos de 10 minutos

Datos horarios

Fecha y hora oficial Temperatura (ºC) Velocidad del viento (km/h) Dirección del viento Racha (km/h) Dirección de racha Precipitación (mm) Presión (hPa) Tendencia (hPa) Humedad (%)
2019-12-07 23:00:00 9.1 4 Sudeste 8 Sudeste 0 1019.3 -0.3 96
2019-12-07 22:00:00 9 5 Sudeste 7 Sudeste 0 1019.5 -0.2 96
2019-12-07 21:00:00 9.3 6 Sudeste 7 Este 0 1019.7 0.6 95
2019-12-07 20:00:00 11.2 0 Calma 8 Sudeste 0 1019.6 1.1 89
2019-12-07 19:00:00 12.2 4 Sudeste 10 Norte 0 1019.7 1.6 85
2019-12-07 18:00:00 13.7 2 Sur 7 Norte 0 1019.1 0.6 76
2019-12-07 17:00:00 15 3 Nordeste 8 Norte 0 1018.5 -0.5 70
2019-12-07 16:00:00 16.4 2 Norte 5 Norte 0 1018.1 -1.5 62
2019-12-07 15:00:00 15.9 3 Norte 9 Noroeste 0 1018.5 -1.7 64
2019-12-07 14:00:00 16.5 6 Noroeste 9 Noroeste 0 1019 -1.5 59
2019-12-07 13:00:00 16 4 Norte 6 Norte 0 1019.6 -0.5 68
2019-12-07 12:00:00 13 3 Norte 6 Sudeste 0 1020.2 0.4 78
2019-12-07 11:00:00 9.6 3 Sudeste 6 Sudeste 0 1020.5 1.1 100
2019-12-07 10:00:00 7.8 2 Sudeste 6 Sudeste 0 1020.1 0.9 100
2019-12-07 09:00:00 6.4 5 Sudeste 7 Sudeste 0 1019.8 0.7 100
2019-12-07 08:00:00 6.5 5 Sudeste 8 Sudeste 0 1019.4 0.4 100
2019-12-07 07:00:00 5.3 3 Sudeste 7 Sudeste 0 1019.2 -0.1 100
2019-12-07 06:00:00 4.9 3 Sudeste 8 Sudeste 0 1019.1 -0.4 100
2019-12-07 05:00:00 5.6 7 Sudeste 8 Sudeste 0 1019 -0.6 100
2019-12-07 04:00:00 6.3 6 Sudeste 7 Sudeste 0 1019.3 -1 100
2019-12-07 03:00:00 6 4 Sudeste 9 Sudeste 0 1019.5 -0.6 100
2019-12-07 02:00:00 5.7 3 Sudoeste 8 Sudeste 0 1019.6 -0.4 100
2019-12-07 01:00:00 5.5 2 Este 6 Este 0 1020.3 0.2 100
2019-12-07 00:00:00 5.1 2 Nordeste 5 Sudeste 0 1020.1 0.5 99
2019-12-06 23:00:00 5.9 3 Sur 9 Sudeste 0 1020 1 99
2019-12-06 22:00:00 6.3 0 Calma 6 Sudeste 0 1020.1 1 100
2019-12-06 21:00:00 6.6 2 Norte 6 Este 0 1019.6 0.8 99
2019-12-06 20:00:00 7 6 Sudeste 8 Sudeste 0 1019 0.3 97
2019-12-06 19:00:00 8.9 0 Calma 7 Sudeste 0 1019.1 0.6 93
2019-12-06 18:00:00 10.9 3 Sur 8 Sudoeste 0 1018.8 0.4 86
2019-12-06 17:00:00 12.6 4 Sudoeste 12 Oeste 0 1018.7 -0.3 79
2019-12-06 16:00:00 13.9 6 Oeste 12 Oeste 0 1018.5 -0.8 70
2019-12-06 15:00:00 12.3 3 Sudoeste 6 Sudoeste 0 1018.4 -1.6 80
2019-12-06 14:00:00 12.1 4 Sudoeste 9 Noroeste 0 1019 -1.8 80
2019-12-06 13:00:00 12 6 Oeste 11 Oeste 0 1019.3 -0.7 79
2019-12-06 12:00:00 11 4 Sudoeste 9 Sudoeste 0 1020 0.6 89
2019-12-06 11:00:00 8 2 Sudeste 5 Sudeste 0 1020.8 1.4 100
2019-12-06 10:00:00 5.7 3 Sudeste 5 Sudeste 0 1020 0.8 100
2019-12-06 09:00:00 4.6 4 Sudeste 5 Sudeste 0 1019.4 0 100
2019-12-06 08:00:00 4.2 4 Sudeste 5 Sudeste 0 1019.4 -0.5 100
2019-12-06 07:00:00 4.3 2 Este 5 Sudeste 0 1019.2 -0.9 100
2019-12-06 06:00:00 4.3 4 Sudeste 13 Este 0 1019.4 -0.4 100
2019-12-06 05:00:00 4.2 4 Sudeste 9 Este 0 1019.9 -0.2 100
2019-12-06 04:00:00 4.5 3 Sudeste 5 Sudeste 0 1020.1 -0.5 100
2019-12-06 03:00:00 5.4 4 Sudeste 6 Este 0 1019.8 -0.8 99
2019-12-06 02:00:00 6.6 2 Sudeste -- -- -- 1020.1 -0.3 99
2019-12-06 01:00:00 8.2 3 Sur 5 Oeste 0 1020.6 0.1 98
2019-12-06 00:00:00 9.2 3 Sur 6 Este 0 1020.6 0.2 99
2019-12-05 23:00:00 10.1 0 Calma 8 Este 0 1020.4 -0.1 98
2019-12-05 22:00:00 9.8 3 Sudeste 8 Este 0 1020.5 -0.2 99
2019-12-05 21:00:00 9.9 5 Este 11 Este 0 1020.4 0 99
2019-12-05 20:00:00 9.5 3 Sudeste 6 Sudeste 0 1020.5 0.1 99
2019-12-05 19:00:00 10.2 4 Sudeste 7 Este 0 1020.7 0.5 97
2019-12-05 18:00:00 11.3 3 Este 8 Nordeste 0 1020.4 0 94
2019-12-05 17:00:00 11.5 2 Este 5 Este 0 1020.4 -0.5 95
2019-12-05 16:00:00 11 2 Noroeste 4 Noroeste 0 1020.2 -1 94
2019-12-05 15:00:00 10.7 2 Sudeste 5 Sudeste 0 1020.4 -- 96
2019-12-05 14:00:00 10.1 3 Sudeste 6 Sudeste 0 1020.9 -0.1 97
2019-12-05 13:00:00 9.7 4 Sudeste 6 Sudeste 0 1021.2 0.5 98
2019-12-05 12:00:00 -- -- -- -- -- -- -- -- --
2019-12-05 11:00:00 8.7 2 Sur 5 Sudeste 0 1021 1.5 99
2019-12-05 10:00:00 8.2 3 Noroeste 8 Oeste 0.2 1020.7 1.6 100
2019-12-05 09:00:00 7.9 3 Noroeste 5 Oeste 0.2 1020 1.1 99
2019-12-05 08:00:00 7.8 0 Calma 5 Nordeste 0.4 1019.5 0.7 99
2019-12-05 07:00:00 7.6 0 Calma 5 Norte 0 1019.1 0.3 99
2019-12-05 06:00:00 7.5 2 Noroeste 5 Sudoeste 0 1018.9 0.9 98
2019-12-05 05:00:00 7.6 4 Oeste 7 Oeste 0.8 1018.8 1.4 98
2019-12-05 04:00:00 7.6 0 Calma 3 Este 0.8 1018.8 1.3 98
2019-12-05 03:00:00 7.7 0 Calma 5 Norte 0.2 1018 0.7 96
2019-12-05 02:00:00 7.8 0 Calma 5 Norte 0 1017.4 0.4 93
2019-12-05 01:00:00 7.7 2 Sur 9 Norte 0 1017.5 1.1 92
2019-12-05 00:00:00 7.7 4 Norte 14 Oeste 0 1017.3 1.5 93
2019-12-04 23:00:00 7.1 0 Calma 7 Sudeste 0 1017 2.1 97
2019-12-04 22:00:00 6.8 3 Oeste 8 Nordeste 0 1016.4 2.1 98
2019-12-04 21:00:00 6.1 3 Sur 6 Este 0 1015.8 1.9 98
2019-12-04 20:00:00 5.6 4 Sudeste 5 Sudeste 0 1014.9 1.8 97
2019-12-04 19:00:00 6.4 4 Sudeste 6 Sudeste 0 1014.3 1.6 95
2019-12-04 18:00:00 7.4 5 Sudeste -- -- -- 1013.9 1.4 92
2019-12-04 17:00:00 8.8 5 Sudeste 6 Sudeste 0 1013.1 0.6 88
2019-12-04 16:00:00 11.2 2 Sur 8 Sur 0 1012.7 0.4 74
2019-12-04 15:00:00 11.4 4 Sudoeste 9 Sudoeste 0 1012.5 -0.7 72
2019-12-04 14:00:00 11.1 4 Sudoeste 9 Oeste 0 1012.5 -0.2 69
2019-12-04 13:00:00 10.7 5 Oeste 10 Oeste 0 1012.3 0.4 65
2019-12-04 12:00:00 9.6 3 Sudeste 7 Sur 0 1013.2 1.9 69
2019-12-04 11:00:00 5.7 2 Sudeste 4 Sudeste 0 1012.7 1.7 85
2019-12-04 10:00:00 1.6 3 Sudeste 8 Sudeste 0 1011.9 1.3 100
2019-12-04 09:00:00 -0.6 4 Sudeste 7 Sudeste 0 1011.3 1 100
2019-12-04 08:00:00 -0.7 4 Sudeste 8 Sudeste 0 1011 0.3 100
2019-12-04 07:00:00 -0.7 5 Sudeste 8 Sudeste 0 1010.6 -0.1 100
2019-12-04 06:00:00 -0.7 7 Sudeste 9 Este 0 1010.3 -0.8 100
2019-12-04 05:00:00 -0.7 5 Sudeste 8 Sudeste 0 1010.7 -0.8 100
2019-12-04 04:00:00 -0.5 5 Sudeste 7 Sudeste 0 1010.7 -1.6 100
2019-12-04 03:00:00 0 4 Sudeste 7 Este 0 1011.1 -1.4 99
2019-12-04 02:00:00 0.5 2 Sur 7 Sudeste 0 1011.5 -1.2 99
2019-12-04 01:00:00 1 3 Sudeste -- -- -- 1012.3 -0.8 98
2019-12-04 00:00:00 1.3 4 Oeste 6 Oeste 0 1012.5 -1 98
2019-12-03 23:00:00 1.7 0 Calma 6 Sudeste 0 1012.7 -1.2 98
2019-12-03 22:00:00 2.1 5 Sudeste 7 Sudeste 0 1013.1 -0.7 97
2019-12-03 21:00:00 2.9 3 Sudeste 6 Este 0 1013.5 -0.5 97
2019-12-03 20:00:00 3.5 5 Sudeste 6 Sudeste 0 1013.9 -0.5 94
2019-12-03 19:00:00 5.2 4 Sudeste 6 Sudeste 0 1013.8 -1 88
2019-12-03 18:00:00 8 3 Sudeste 19 Este 0 1014 -1.3 75
2019-12-03 17:00:00 10.1 8 Este 21 Este 0 1014.4 -1.9 64
2019-12-03 16:00:00 11 11 Este 22 Este 0 1014.8 -2.7 59
2019-12-03 15:00:00 11.3 11 Este 30 Este 0 1015.3 -3.1 59
2019-12-03 14:00:00 11.5 10 Este 25 Nordeste 0 1016.3 -2.6 58
2019-12-03 13:00:00 11.1 14 Este 27 Este 0 1017.5 -1.6 56
2019-12-03 12:00:00 11.2 12 Nordeste 24 Nordeste 0 1018.4 -1.2 59
2019-12-03 11:00:00 10.8 10 Este 26 Este 0 1018.9 -0.7 63
2019-12-03 10:00:00 6.9 4 Sudeste 9 Este 0 1019.1 -0.6 87
2019-12-03 09:00:00 5.9 3 Sudeste 7 Este 0 1019.6 -0.5 87
2019-12-03 08:00:00 7.3 4 Este 17 Este 0 1019.6 -1 79
2019-12-03 07:00:00 7.6 4 Este 11 Este 0 1019.7 -1.5 78
2019-12-03 06:00:00 7.6 4 Este 19 Este 0 1020.1 -1.2 76
2019-12-03 05:00:00 8.6 10 Este 20 Este 0 1020.6 -1 74
2019-12-03 04:00:00 4.4 4 Sudeste 6 Sudeste 0 1021.2 -0.6 98
2019-12-03 03:00:00 4.4 0 Calma 5 Sudeste 0 1021.3 -1 96
2019-12-03 02:00:00 5.2 4 Sudeste 7 Sudeste 0 1021.6 -0.7 95
2019-12-03 01:00:00 6.4 3 Este 15 Sudeste 0 1021.8 -0.8 89
2019-12-03 00:00:00 7 4 Sudeste 12 Este 0 1022.3 -0.3 90
2019-12-02 23:00:00 8.3 3 Sudeste 8 Sudeste 0 1022.3 -0.4 84
2019-12-02 22:00:00 8.6 4 Sudeste 12 Sur 0 1022.6 0.2 80
2019-12-02 21:00:00 9.3 3 Sudeste 20 Este 0 1022.6 0.5 75
2019-12-02 20:00:00 10.1 12 Este 27 Este 0 1022.7 1 69
2019-12-02 19:00:00 10.1 15 Este 32 Este 0 1022.4 1 66
2019-12-02 18:00:00 10.1 13 Nordeste 28 Nordeste 0 1022.1 1 65
2019-12-02 17:00:00 10.4 12 Nordeste 36 Nordeste 0 1021.7 0.4 70
2019-12-02 16:00:00 10.6 14 Nordeste 35 Nordeste 0 1021.4 -0.2 71
2019-12-02 15:00:00 10.7 16 Nordeste 35 Nordeste 0 1021.1 -0.9 76
2019-12-02 14:00:00 10.8 16 Nordeste 37 Nordeste 0 1021.3 -0.2 77
2019-12-02 13:00:00 11.1 14 Nordeste 35 Nordeste 0 1021.6 1 75
2019-12-02 12:00:00 10.8 13 Nordeste 39 Nordeste 0 1022 2.2 72
2019-12-02 11:00:00 10.9 14 Nordeste 33 Nordeste 0 1021.5 2.5 76
2019-12-02 10:00:00 10.8 17 Nordeste 42 Nordeste 0 1020.6 1.8 79
2019-12-02 09:00:00 10.8 13 Nordeste 42 Nordeste 0 1019.8 1.6 81
2019-12-02 08:00:00 9.8 16 Nordeste 32 Nordeste 0.2 1019 0.9 97
2019-12-02 07:00:00 8.4 6 Sur 12 Sudoeste 6.2 1018.8 1.1 98
2019-12-02 06:00:00 8.5 2 Sudoeste 8 Oeste 1.8 1018.2 0.7 98
2019-12-02 05:00:00 8.6 2 Noroeste 6 Oeste 1 1018.1 0.9 97
2019-12-02 04:00:00 8.5 2 Sudoeste 9 Sudoeste 0 1017.7 1 97
2019-12-02 03:00:00 8.5 4 Sur 8 Sur 2.4 1017.5 1.3 97
2019-12-02 02:00:00 8.7 4 Noroeste 10 Sur 1 1017.2 1 95
2019-12-02 01:00:00 9.4 5 Sudeste 20 Norte 0.2 1016.7 0.8 91
2019-12-02 00:00:00 10 6 Este 24 Nordeste 0.2 1016.2 0.7 86
2019-12-01 23:00:00 10.1 15 Norte 29 Norte 0.2 1016.2 1.3 83
2019-12-01 22:00:00 10.2 12 Norte 29 Norte 0.2 1015.9 1.8 81
2019-12-01 21:00:00 10.2 14 Norte 33 Norte 0 1015.5 2.5 81
2019-12-01 20:00:00 11.1 17 Norte 33 Norte 0 1014.9 2.7 76
2019-12-01 19:00:00 11.1 20 Norte 36 Nordeste 0 1014.1 2.4 77
2019-12-01 18:00:00 10.9 18 Nordeste 38 Nordeste 0.2 1013 1.4 84
2019-12-01 17:00:00 10.7 26 Norte 42 Norte 0.8 1012.2 0.7 89
2019-12-01 16:00:00 11 3 Sur 8 Sudoeste 0.6 1011.7 0.3 92
2019-12-01 15:00:00 10.9 5 Oeste 9 Oeste 0.2 1011.6 0.5 91
2019-12-01 14:00:00 10.2 3 Sur 10 Sudoeste 1.4 1011.5 1.4 98
2019-12-01 13:00:00 9.8 5 Sur 10 Sudoeste 7.2 1011.4 2.4 98
2019-12-01 12:00:00 10.1 6 Sur 14 Oeste 2.2 1011.1 3.2 96
2019-12-01 11:00:00 11.2 7 Noroeste 13 Noroeste 0 1010.1 3.2 93
2019-12-01 10:00:00 9.1 2 Norte 4 Sudeste 0.2 1009 3 99
2019-12-01 09:00:00 8.6 3 Este 6 Este 0 1007.9 2.4 99
2019-12-01 08:00:00 8.5 4 Sudeste 12 Nordeste 0.6 1006.9 1.8 98
2019-12-01 07:00:00 8.3 2 Norte 5 Sudeste 0.2 1006 0.3 99
2019-12-01 06:00:00 8.3 3 Noroeste 6 Sur 0.2 1005.5 -0.1 98
2019-12-01 05:00:00 7.9 4 Sudeste 10 Sudeste 0.6 1005.1 -0.7 98
2019-12-01 04:00:00 7.5 3 Sur 10 Sur 0 1005.7 -1 97
2019-12-01 03:00:00 7 4 Este 7 Sur 0 1005.6 -1.4 98
2019-12-01 02:00:00 6.5 2 Sudeste 10 Sudeste 0 1005.8 -2 97
2019-12-01 01:00:00 6.7 5 Sudeste 7 Sudeste 0 1006.7 -1.3 96
2019-12-01 00:00:00 7.6 2 Sur 8 Sudeste 0 1007 -1.4 91
2019-11-30 23:00:00 7.8 6 Sudeste 9 Sudeste 0 1007.8 -0.8 91
2019-11-30 22:00:00 8.1 4 Este 9 Sudeste 0 1008 -0.9 89
2019-11-30 21:00:00 8.6 3 Sudeste 6 Sudeste 0 1008.4 -0.8 88
2019-11-30 20:00:00 9.6 2 Este 8 Sudoeste 0 1008.6 -1 80
2019-11-30 19:00:00 11.5 4 Oeste 13 Sur 0 1008.9 -0.6 65
2019-11-30 18:00:00 11.9 4 Sudoeste 19 Oeste 0 1009.2 0.5 67
2019-11-30 17:00:00 12.4 13 Noroeste 27 Noroeste 0 1009.6 0.6 68
2019-11-30 16:00:00 13.2 15 Oeste 44 Noroeste 0 1009.5 -0.5 65
2019-11-30 15:00:00 16.2 17 Oeste 42 Oeste 0 1008.7 -2.5 45
2019-11-30 14:00:00 16.2 15 Oeste 32 Oeste 0 1009 -1.5 50
2019-11-30 13:00:00 14.7 8 Oeste 21 Sudoeste 0 1010 -0.3 63
2019-11-30 12:00:00 12.6 6 Sudoeste 16 Oeste 0.8 1011.2 0.3 90
2019-11-30 11:00:00 11.8 4 Sudoeste 14 Sudoeste 0 1010.5 -0.2 90
2019-11-30 10:00:00 11 6 Sudeste 13 Sudeste 1.8 1010.3 0 97
2019-11-30 09:00:00 11.2 6 Sur 13 Sur 2.6 1010.9 2.7 96
2019-11-30 08:00:00 11.7 4 Sudoeste 29 Noroeste 8 1010.7 2.7 94
2019-11-30 07:00:00 12 17 Noroeste 36 Noroeste 7 1010.3 2 100
2019-11-30 06:00:00 10.8 4 Sudeste 9 Sudeste 0.6 1008.2 -1 99
2019-11-30 05:00:00 10.4 5 Sudeste 8 Sudeste 0.4 1008 -1.8 99
2019-11-30 04:00:00 10.1 3 Oeste 9 Sudeste 0 1008.3 -2.5 98
2019-11-30 03:00:00 9.5 4 Sur 5 Sudeste 0 1009.2 -3 97
2019-11-30 02:00:00 9.3 3 Sudeste 6 Este 0 1009.8 -3.4 98
2019-11-30 01:00:00 8.7 6 Sudeste 9 Oeste 0 1010.8 -3.5 97
2019-11-30 00:00:00 8.8 5 Sur 10 Oeste 0 1012.2 -2.8 95
2019-11-29 23:00:00 8.8 4 Sur 7 Sudeste 0 1013.2 -1.7 95
2019-11-29 22:00:00 10.1 2 Norte 10 Oeste 0 1014.3 -1.3 89
2019-11-29 21:00:00 11.4 6 Este 13 Este 0 1015 -0.3 83
2019-11-29 20:00:00 9.7 3 Sudeste 8 Sudeste 0 1014.9 0 93
2019-11-29 19:00:00 11.2 5 Sudeste 6 Este 0 1015.6 1 88
2019-11-29 18:00:00 13.7 4 Este 19 Nordeste 0 1015.3 0.2 78
2019-11-29 17:00:00 15.5 8 Nordeste 18 Este 0 1014.9 -0.8 65
2019-11-29 16:00:00 17.5 11 Nordeste 19 Norte 0 1014.6 -1.5 63
2019-11-29 15:00:00 17.5 9 Nordeste 14 Norte 0 1015.1 -1.7 67
2019-11-29 14:00:00 17.3 8 Norte 12 Norte 0 1015.7 -0.8 69
2019-11-29 13:00:00 17.1 3 Norte 6 Nordeste 0 1016.1 0.2 66
2019-11-29 12:00:00 16.6 2 Este 5 Sudoeste 0 1016.8 1.4 73
2019-11-29 11:00:00 14.2 0 Calma 4 Sudoeste 0 1016.5 1.6 84
2019-11-29 10:00:00 12 2 Sudeste 5 Este 0 1015.9 1.4 95
2019-11-29 09:00:00 10.8 4 Sudeste 6 Este 0 1015.4 1.5 97
2019-11-29 08:00:00 12 0 Calma 6 Sudeste 0 1014.9 1.5 98
2019-11-29 07:00:00 12.2 5 Sudeste 6 Sudeste 0 1014.5 1.4 98
2019-11-29 06:00:00 12.6 4 Sudeste 5 Sudeste 0 1013.9 1.6 95
2019-11-29 05:00:00 12.8 3 Sur 7 Sur 0 1013.4 1.6 94
2019-11-29 04:00:00 13 6 Oeste 10 Oeste 0 1013.1 1.6 93
2019-11-29 03:00:00 12.6 3 Sur 5 Sudoeste 0 1012.3 1.7 97
2019-11-29 02:00:00 12.7 3 Sur 6 Oeste 0 1011.8 1.7 96
2019-11-29 01:00:00 13.2 3 Sudoeste 13 Oeste 0 1011.5 2.3 93
2019-11-29 00:00:00 13 6 Sudoeste 11 Sudoeste 0 1010.6 2.6 96
2019-11-28 23:00:00 12.7 4 Sur 8 Sur 0 1010.1 3.1 99
2019-11-28 22:00:00 12.8 4 Oeste 10 Oeste 0.6 1009.2 3.8 99
2019-11-28 21:00:00 12.6 2 Noroeste 5 Nordeste 1.4 1008 3.3 99
2019-11-28 20:00:00 12.3 0 Calma 6 Norte 1.6 1007 1.4 98
2019-11-28 19:00:00 12.4 0 Calma 9 Norte 0 1005.4 -1.7 96
2019-11-28 18:00:00 12.7 3 Norte 8 Sur 0 1004.7 -2.6 94
2019-11-28 17:00:00 12.9 5 Sudeste 10 Este 0.4 1005.6 -1.7 95
2019-11-28 16:00:00 13.3 4 Sudeste 7 Sudeste 1.6 1007.1 -0.7 97
2019-11-28 15:00:00 13.5 4 Sudoeste 7 Oeste 0.2 1007.3 -0.3 95
2019-11-28 14:00:00 13.3 3 Sur 7 Sudeste 0.6 1007.3 -1 95
2019-11-28 13:00:00 13.6 5 Noroeste 9 Norte 0.8 1007.8 -0.3 93
2019-11-28 12:00:00 13.8 4 Este 8 Este 0 1007.6 0 88
2019-11-28 11:00:00 13.3 4 Oeste 10 Nordeste 0 1008.3 1.1 89
2019-11-28 10:00:00 13.2 5 Este 11 Este 0 1008.1 1.7 90
2019-11-28 09:00:00 13.3 4 Sur 9 Sudoeste 0 1007.6 1.4 86
2019-11-28 08:00:00 13.4 3 Sudoeste 7 Sudoeste 0 1007.2 1.6 83
2019-11-28 07:00:00 14 7 Oeste 19 Oeste 0 1006.4 0.8 78
2019-11-28 06:00:00 14.1 7 Oeste 26 Noroeste 0 1006.2 1.1 77
2019-11-28 05:00:00 14.5 13 Oeste 34 Oeste 0 1005.6 0.2 72
2019-11-28 04:00:00 13.6 5 Oeste 13 Noroeste 0 1005.6 0.7 76
2019-11-28 03:00:00 13.9 4 Sudoeste 15 Oeste 0 1005.1 0.6 76
2019-11-28 02:00:00 14 5 Oeste 14 Oeste 0 1005.4 0.4 72
2019-11-28 01:00:00 13.9 4 Sudoeste 18 Oeste 0 1004.9 0.3 71
2019-11-28 00:00:00 15 10 Oeste 33 Sudoeste 0 1004.5 0 65
2019-11-27 23:00:00 14 13 Oeste 26 Sudoeste 0 1005 0.8 71
2019-11-27 22:00:00 12.4 7 Sudoeste 25 Oeste 0.2 1004.6 0.4 85
2019-11-27 21:00:00 12 3 Sudeste 12 Oeste 0.2 1004.5 0.4 89
2019-11-27 20:00:00 12 2 Sur 17 Noroeste 0.2 1004.2 0.5 89
2019-11-27 19:00:00 12.8 3 Sudoeste 10 Noroeste 0 1004.2 0.8 80
2019-11-27 18:00:00 14 6 Noroeste 15 Sudoeste 0 1004.1 0.9 71
2019-11-27 17:00:00 14.1 6 Sudoeste 16 Sudoeste 0 1003.7 0.4 68
2019-11-27 16:00:00 14 8 Sudoeste 41 Oeste 0.2 1003.4 0.3 71
2019-11-27 15:00:00 16 10 Sudoeste 30 Oeste 0 1003.2 -0.2 59
2019-11-27 14:00:00 16.4 13 Oeste 33 Oeste 0 1003.3 0.4 55
2019-11-27 06:00:00 14.5 17 Oeste 32 Oeste 0 1000.5 1.1 57
2019-11-27 05:00:00 14.7 14 Oeste 31 Oeste 0 1000.2 1.1 53
2019-11-27 04:00:00 14.3 15 Oeste 45 Oeste 0 999.9 1.7 59
2019-11-27 03:00:00 14.7 17 Oeste 37 Sudoeste 0 999.4 1.6 57
2019-11-27 02:00:00 15 22 Oeste 38 Oeste 0 999.1 1.9 56
2019-11-27 01:00:00 14.9 14 Oeste 42 Sudoeste 0 998.2 1.7 53
2019-11-27 00:00:00 14.8 16 Oeste 48 Oeste 0 997.8 1 49
2019-11-26 23:00:00 15 26 Oeste 55 Oeste 0 997.2 0.8 51
2019-11-26 22:00:00 13.4 6 Sudoeste 30 Oeste 0 996.5 1.6 65
2019-11-26 21:00:00 13.6 19 Oeste 34 Oeste 0 996.8 3 66
2019-11-26 20:00:00 12.9 13 Oeste 51 Oeste 1 996.4 3.2 78
2019-11-26 19:00:00 14.5 27 Noroeste 51 Noroeste 0 994.9 1.3 73
2019-11-26 18:00:00 14.9 6 Este 15 Sudeste 0 993.8 -0.9 89
2019-11-26 17:00:00 15.8 4 Noroeste 12 Noroeste 0 993.2 -3.1 85
2019-11-26 16:00:00 16.8 4 Noroeste 9 Sudoeste 0 993.6 -4.3 80
2019-11-26 15:00:00 17.4 3 Noroeste 16 Norte 0 994.7 -4.6 76
2019-11-26 14:00:00 19.7 8 Norte 13 Norte 0 996.3 -4.2 65
2019-11-26 13:00:00 18.9 4 Sudeste 11 Sudeste 0 997.9 -3.2 71
2019-11-26 12:00:00 18.3 2 Este 6 Sudeste 0 999.3 -1.7 74
2019-11-26 11:00:00 15.5 4 Sudeste 9 Sudeste 0 1000.5 0.2 85
2019-11-26 10:00:00 13.8 6 Sudeste 11 Sudeste 0 1001.1 0.3 87
2019-11-26 09:00:00 13.7 4 Sudeste 22 Nordeste 0 1001 -0.1 86
2019-11-26 08:00:00 10.2 3 Noroeste 9 Sudeste 0 1000.3 -1 99
2019-11-26 07:00:00 9.5 6 Sudeste 10 Sudeste 0 1000.8 -0.8 100
2019-11-26 06:00:00 8.7 5 Sudeste 10 Este 0 1001.1 -0.8 100
2019-11-26 05:00:00 8.2 6 Sudeste 10 Sudeste 0 1001.3 -1.5 100
2019-11-26 04:00:00 7.8 3 Nordeste 8 Este 0 1001.6 -2.1 100
2019-11-26 03:00:00 8.1 4 Sudeste 9 Este 0 1001.9 -3.1 100
2019-11-26 02:00:00 8 5 Sudeste 8 Sudeste 0 1002.8 -3.1 100
2019-11-26 01:00:00 8.2 4 Sudoeste 8 Norte 0 1003.7 -3 100
2019-11-26 00:00:00 8 5 Este 10 Sudeste 0 1005 -2 100
2019-11-25 23:00:00 8.5 2 Oeste 8 Sudeste 0 1005.9 -1.8 99
2019-11-25 22:00:00 8.6 3 Este 5 Sudoeste 0 1006.7 -1.4 97
2019-11-25 21:00:00 9.6 3 Sudeste 7 Este 0 1007 -0.9 95
2019-11-25 20:00:00 11 4 Este 8 Este 0 1007.7 0 94
2019-11-25 19:00:00 13.2 3 Este 12 Este 0 1008.1 0.6 86
2019-11-25 18:00:00 13.1 5 Este 8 Este 0 1007.9 0.3 87
2019-11-25 17:00:00 15.1 3 Este 12 Noroeste 0 1007.7 -0.1 79
2019-11-25 16:00:00 15.8 4 Noroeste 17 Noroeste 0 1007.5 -0.2 72
2019-11-25 15:00:00 16.5 10 Norte 17 Norte 0 1007.6 -0.3 73
2019-11-25 14:00:00 15.8 10 Oeste 25 Noroeste 0 1007.8 0.2 74
2019-11-25 13:00:00 16 10 Noroeste 23 Oeste 0 1007.7 0.9 76
2019-11-25 12:00:00 16.4 5 Oeste 9 Noroeste 0 1007.9 1.7 72
2019-11-25 11:00:00 15.3 4 Sur 8 Sur 0 1007.6 2.1 81
2019-11-25 10:00:00 12.3 4 Sudeste 10 Sudeste 0 1006.8 2.1 99
2019-11-25 09:00:00 10.3 8 Sudeste 11 Sudeste 0 1006.2 2.4 100
2019-11-25 08:00:00 9.4 5 Sudeste 8 Sudeste 0 1005.5 1.8 100
2019-11-25 07:00:00 9 2 Nordeste 9 Sudeste 0 1004.7 1.7 100
2019-11-25 06:00:00 9.8 7 Sudeste 12 Este 0 1003.8 0.2 100
2019-11-25 05:00:00 9.8 2 Sudoeste 9 Sudeste 0 1003.7 1.5 99
2019-11-25 04:00:00 10.1 7 Sudeste 11 Sudeste 0 1003 0.7 97
2019-11-25 03:00:00 10.1 4 Sur 11 Noroeste 0 1003.6 1.5 97
2019-11-25 02:00:00 9.4 2 Norte 11 Este 0 1002.2 -0.1 98
2019-11-25 01:00:00 10.1 3 Este 7 Sudeste 0 1002.3 -0.3 95
2019-11-25 00:00:00 12.1 3 Noroeste 11 Sur 0 1002.1 -0.5 87
2019-11-24 23:00:00 14.3 9 Sur 22 Sudoeste 0 1002.3 -0.8 80
2019-11-24 22:00:00 10.5 4 Nordeste 8 Sur 0 1002.6 0.6 99
2019-11-24 21:00:00 10.4 2 Norte 11 Sudeste 0 1002.6 0.9 98
2019-11-24 20:00:00 10.7 3 Sur 9 Sudeste 0.4 1003.1 0.2 98
2019-11-24 19:00:00 10.9 5 Noroeste 8 Noroeste 0.4 1002 -1.6 95
2019-11-24 18:00:00 11.5 5 Sudeste 13 Sudeste 0.2 1001.7 -2.6 90
2019-11-24 17:00:00 12.7 3 Oeste 6 Norte 0.2 1002.9 -2.4 88
2019-11-24 16:00:00 13.3 4 Sudeste 12 Oeste 0.2 1003.6 -3.1 83
2019-11-24 15:00:00 14.1 5 Noroeste 9 Noroeste 0 1004.3 -3.4 74
2019-11-24 14:00:00 13.5 2 Noroeste 6 Sudeste 0 1005.3 -3 71
2019-11-24 13:00:00 12.6 4 Noroeste 9 Noroeste 0 1006.7 -1.9 72
2019-11-24 12:00:00 11.8 2 Norte 8 Noroeste 0 1007.7 -1 71
2019-11-24 11:00:00 11.4 4 Noroeste 7 Noroeste 0 1008.3 -0.3 76
2019-11-24 10:00:00 10 2 Oeste 8 Sur 0 1008.6 0.5 79
2019-11-24 09:00:00 9.1 2 Sudeste 10 Sudoeste 0 1008.7 0.2 77
2019-11-24 08:00:00 10.5 6 Sudoeste 19 Sudoeste 0 1008.6 0.1 65
2019-11-24 07:00:00 11.3 6 Sudoeste 16 Sudoeste 0 1008.1 0 65
2019-11-24 06:00:00 10.9 6 Sudoeste 17 Sudoeste 0 1008.5 0.8 72
2019-11-24 05:00:00 10.8 8 Sudoeste 22 Sudoeste 0 1008.5 0.8 73
2019-11-24 04:00:00 10.4 8 Sudoeste 22 Sudoeste 0 1008.1 0.4 76
2019-11-24 03:00:00 10.5 9 Sudoeste 27 Sudoeste 0 1007.7 0.4 77
2019-11-24 02:00:00 10.4 9 Sudoeste 20 Sudoeste 0 1007.7 0.6 76
2019-11-24 01:00:00 10.3 9 Sudoeste 21 Sudoeste 0.2 1007.7 1.2 79
2019-11-24 00:00:00 10.5 9 Sudoeste 24 Sudoeste 0 1007.3 1.2 76
2019-11-23 23:00:00 10.4 10 Sudoeste 28 Sudoeste 0 1007.1 1.4 77
2019-11-23 22:00:00 10.4 10 Sudoeste 23 Oeste 0 1006.5 1.2 80
2019-11-23 21:00:00 9.7 10 Sudoeste 23 Oeste 1 1006.1 2.3 87
2019-11-23 20:00:00 9.8 9 Sudoeste 20 Sudoeste 0.6 1005.7 2.5 88
2019-11-23 19:00:00 9.6 6 Oeste 19 Oeste 2.6 1005.3 3.1 92
2019-11-23 18:00:00 10.5 9 Sudoeste 28 Sudoeste 0.2 1003.8 1.7 80
2019-11-23 17:00:00 10.8 9 Sudoeste 32 Oeste 0.8 1003.2 2 84
2019-11-23 16:00:00 10.7 9 Sudoeste 39 Oeste 0.2 1002.2 1.9 86
2019-11-23 15:00:00 11.4 15 Oeste 42 Oeste 0.6 1002.1 1.9 81
2019-11-23 14:00:00 9.9 8 Sudoeste 27 Norte 10.2 1001.2 2.3 95
2019-11-23 13:00:00 10.9 10 Sudoeste 27 Oeste 1 1000.3 2.5 87
2019-11-23 12:00:00 10.2 9 Sudoeste 22 Sudoeste 1.4 1000.2 3.7 88
2019-11-23 11:00:00 10.4 7 Sudoeste 30 Oeste 0.4 998.9 3.8 87
2019-11-23 10:00:00 10.4 8 Sudoeste 34 Oeste 0 997.8 4.1 83
2019-11-23 09:00:00 10.7 14 Oeste 41 Noroeste 0.2 996.5 4.4 78
2019-11-23 08:00:00 11.6 17 Oeste 41 Oeste 0.2 995.1 4.5 64
2019-11-23 07:00:00 10.4 18 Oeste 58 Oeste 0.6 993.7 5.3 79
2019-11-23 06:00:00 10.7 22 Oeste 63 Oeste 0.4 992.1 6 77
2019-11-23 05:00:00 10.7 28 Oeste 66 Oeste 3 990.6 6.4 88
2019-11-23 04:00:00 11.1 27 Oeste 62 Noroeste 5.2 988.4 5.7 90
2019-11-23 03:00:00 11.6 25 Oeste 66 Noroeste 5.8 986.1 4.9 91
2019-11-23 02:00:00 11.3 24 Oeste 49 Oeste 9.2 984.2 3.7 91
2019-11-23 01:00:00 10.3 17 Sudoeste 41 Sudoeste 4.8 982.7 3.4 92
2019-11-23 00:00:00 11 15 Sudoeste 35 Sudoeste 2.8 981.2 2.5 87
2019-11-22 23:00:00 11.7 10 Sudoeste 38 Oeste 2 980.5 2.5 83
2019-11-22 22:00:00 12.7 9 Sudoeste 31 Oeste 0.4 979.3 1.6 72
2019-11-22 21:00:00 14.7 20 Sudoeste 41 Sur 0 978.7 0.8 55
2019-11-22 20:00:00 13.5 6 Sudoeste 17 Sudoeste 0.2 978 -0.2 58
2019-11-22 19:00:00 12.3 5 Sudeste 10 Sudeste 0 977.7 -0.7 76
2019-11-22 18:00:00 14.8 4 Sudoeste 19 Oeste 0 977.9 -0.5 54
2019-11-22 17:00:00 16.3 11 Oeste 40 Oeste 0 978.2 -1.1 47
2019-11-22 16:00:00 17.2 18 Oeste 42 Oeste 0 978.4 0.8 50
2019-11-22 15:00:00 17.1 19 Oeste 36 Oeste 0 978.4 -0.4 55
2019-11-22 14:00:00 15.8 12 Oeste 45 Oeste 0 979.3 -0.9 72
2019-11-22 13:00:00 19.7 15 Sudoeste 39 Sur 0 977.6 -3.9 41
2019-11-22 12:00:00 17.1 6 Sudoeste 27 Sur 0 978.8 -3.5 56
2019-11-22 11:00:00 11.3 5 Este 21 Sur 2.6 980.2 -4.1 90
2019-11-22 10:00:00 11.2 5 Noroeste 12 Este 0.2 981.5 -4.6 79
2019-11-22 09:00:00 10.4 5 Sur 22 Este 0 982.3 -6.3 80
2019-11-22 08:00:00 11.3 9 Este 18 Este 0 984.3 -6.7 70
2019-11-22 07:00:00 9.4 5 Este 17 Este 0.2 986.1 -6.2 82
2019-11-22 06:00:00 7.4 4 Este 9 Este 0.6 988.6 -5.4 95
2019-11-22 05:00:00 6.9 3 Este 8 Sur 0 991 -4.2 94
2019-11-22 04:00:00 6.4 0 Calma 6 Sudeste 0 992.3 -4.4 93
2019-11-22 03:00:00 5.8 0 Calma 9 Sudeste 0 994 -3.8 94
2019-11-22 02:00:00 5.7 5 Sudeste 7 Sudeste 0 995.2 -3.2 96
2019-11-22 01:00:00 5.8 0 Calma 9 Sudeste 0 996.7 -2.2 94
2019-11-22 00:00:00 6.1 3 Sudeste 8 Sudeste 0 997.8 -1.5 93
2019-11-21 23:00:00 6.2 6 Sudeste 8 Sudeste 0 998.4 -1.3 92
2019-11-21 22:00:00 6.5 4 Sudeste 9 Sudeste 0 998.9 -1.3 91
2019-11-21 21:00:00 7.2 4 Sudeste 8 Sudeste 0 999.3 -0.7 88
2019-11-21 20:00:00 7.8 3 Sur 8 Sudeste 0 999.7 0.2 82
2019-11-21 19:00:00 7.9 5 Sudeste 9 Sudeste 0 1000.2 0.7 82
2019-11-21 18:00:00 11.3 3 Sur 9 Sudoeste 0 1000 0.5 65
2019-11-21 17:00:00 14.7 5 Sudoeste 22 Oeste 0 999.5 -0.3 42
2019-11-21 16:00:00 15.9 13 Oeste 27 Oeste 0 999.5 -0.6 37
2019-11-21 15:00:00 15.8 13 Sudoeste 38 Oeste 0 999.5 -1.2 42
2019-11-21 14:00:00 15.4 13 Oeste 31 Oeste 0 999.8 -1 46
2019-11-21 13:00:00 14.7 14 Oeste 26 Oeste 0 1000.1 -0.5 49
2019-11-21 12:00:00 13.9 8 Sudoeste 21 Sudoeste 0 1000.7 0.1 50
2019-11-21 11:00:00 12.1 7 Sudoeste 15 Oeste 0 1000.8 0.9 54
2019-11-21 10:00:00 9.2 4 Sudeste 9 Oeste 0 1000.6 0.5 87
2019-11-21 09:00:00 5.4 4 Sudeste 8 Oeste 0 1000.6 0.9 96
2019-11-21 08:00:00 5.7 5 Sur 12 Sudoeste 0 999.9 0.4 91
2019-11-21 07:00:00 5.4 2 Sudeste 8 Sudeste 0 1000.1 0.3 99
2019-11-21 06:00:00 6.4 2 Sudoeste 6 Norte 0 999.7 -0.1 99
2019-11-21 05:00:00 6.5 5 Sudeste 7 Sudeste 0 999.5 0 100
2019-11-21 04:00:00 6.6 3 Sudeste 10 Este 0 999.8 0.1 100
2019-11-21 03:00:00 6.7 3 Sudeste 7 Oeste 0 999.8 0.2 100
2019-11-21 02:00:00 6 6 Sudeste 9 Sudeste 0 999.5 -0.4 99
2019-11-21 01:00:00 6.2 3 Noroeste 7 Este 0 999.7 -0.3 100
2019-11-21 00:00:00 6.5 5 Este 7 Este 0 999.6 -0.7 98
2019-11-20 23:00:00 8.2 3 Nordeste 9 Este 0 999.9 0.2 98
2019-11-20 22:00:00 8.8 7 Este 9 Este 0 1000 0.8 98
2019-11-20 21:00:00 8.5 7 Sudeste 9 Sudeste 0 1000.3 1 97
2019-11-20 20:00:00 8.5 6 Sudeste 9 Sudeste 0 999.7 0.3 96
2019-11-20 19:00:00 10 4 Oeste 7 Sudeste 0 999.2 -0.5 93
2019-11-20 18:00:00 11.5 0 Calma 5 Este 0 999.3 -0.8 90
2019-11-20 17:00:00 12.7 3 Este 5 Noroeste 0 999.4 -1.4 83
2019-11-20 16:00:00 13.1 3 Noroeste 6 Este 0 999.7 -1.7 80
2019-11-20 15:00:00 13 0 Calma 5 Sudeste 0 1000.1 -2 77
2019-11-20 14:00:00 12.3 2 Sudeste 3 Sudeste 0 1000.8 -2 75
2019-11-20 13:00:00 11.8 3 Noroeste 4 Noroeste 0 1001.4 -1.7 81
2019-11-20 12:00:00 10 3 Noroeste 5 Noroeste 0 1002.1 -0.8 91
2019-11-20 11:00:00 8.2 2 Sudeste 4 Sudeste 0 1002.8 -0.1 99
2019-11-20 10:00:00 6.7 2 Sudeste 7 Sudeste 0 1003.1 -0.2 100
2019-11-20 09:00:00 4.8 2 Sudeste 6 Sudeste 0 1002.9 -1 100
2019-11-20 08:00:00 5.4 3 Noroeste 6 Sudeste 0 1002.9 -1.6 100
2019-11-20 07:00:00 6.3 2 Sudeste 6 Sudeste 0 1003.3 -1.5 100
2019-11-20 06:00:00 6.9 2 Sur 9 Sudeste 0 1003.9 -1.6 99
2019-11-20 05:00:00 7.4 5 Sudeste 10 Oeste 0 1004.5 -1.5 98
2019-11-20 04:00:00 8.2 3 Sudeste 9 Este 0 1004.8 -1.8 99
2019-11-20 03:00:00 8.2 2 Norte 8 Sudeste 0 1005.5 -2 99
2019-11-20 02:00:00 8.2 2 Sur 5 Sur 0 1006 -2 98
2019-11-20 01:00:00 8.8 2 Sudoeste 6 Sudeste 0.2 1006.6 -1.8 98
2019-11-20 00:00:00 9.3 3 Sudoeste 5 Oeste 0 1007.5 -1.1 97
2019-11-19 23:00:00 9.3 3 Sudeste 9 Este 0 1008 -1.1 97
2019-11-19 22:00:00 9.6 2 Oeste 5 Sur 0 1008.4 -0.6 96
2019-11-19 21:00:00 9.7 5 Sudeste 7 Este 0.2 1008.6 -0.2 96
2019-11-19 20:00:00 10.2 3 Sudeste 5 Sudeste 0 1009.1 0.4 93
2019-11-19 19:00:00 10.3 2 Sur 5 Este 0 1009 0.1 88
2019-11-19 18:00:00 11.1 2 Sudeste 5 Oeste 0 1008.8 -0.6 84
2019-11-19 17:00:00 12.9 4 Nordeste 9 Norte 0 1008.7 -1.5 68
2019-11-19 16:00:00 13.5 6 Norte 10 Norte 0 1008.9 -2.2 70
2019-11-19 15:00:00 14 3 Norte 6 Oeste 0 1009.4 -2.6 62
2019-11-19 14:00:00 13.3 3 Noroeste 5 Oeste 0 1010.2 -2.3 67
2019-11-19 13:00:00 11.8 2 Norte 5 Noroeste 0 1011.1 -1.8 68
2019-11-19 12:00:00 9.4 3 Norte 5 Sudeste 0 1012 -1.2 78
2019-11-19 11:00:00 6.9 2 Nordeste 5 Sudeste 0 1012.5 -0.7 92
2019-11-19 10:00:00 4 4 Sudeste 5 Sudeste 0 1012.9 -0.4 100
2019-11-19 09:00:00 1.9 2 Sudeste 8 Sudeste 0 1013.2 -0.4 100
2019-11-19 08:00:00 1.7 2 Sudeste 8 Sudeste 0 1013.2 -0.7 100
2019-11-19 07:00:00 2.1 6 Sudeste 6 Sudeste 0 1013.3 -0.9 100
2019-11-19 06:00:00 2 3 Sudeste 6 Sudeste 0 1013.6 -0.7 100
2019-11-19 05:00:00 2.1 0 Calma 7 Sudeste 0 1013.9 -0.3 99
2019-11-19 04:00:00 2.8 3 Este 8 Este 0 1014.2 -0.9 99
2019-11-19 03:00:00 3.4 6 Sudeste 8 Este 0 1014.3 -1 99
2019-11-19 02:00:00 4.4 2 Sudoeste 6 Sudeste 0 1014.2 -1.3 97
2019-11-19 01:00:00 5.7 4 Sudeste 7 Sudeste 0 1015.1 -1.1 94
2019-11-19 00:00:00 8.1 3 Sur 14 Sudoeste 0 1015.3 -1.1 84
2019-11-18 23:00:00 8.9 6 Sur 13 Sudeste 0 1015.5 -0.6 82
2019-11-18 22:00:00 8.6 3 Norte 9 Sudoeste 0 1016.2 0.4 92
2019-11-18 21:00:00 8.7 2 Sudoeste 7 Sudoeste 0 1016.4 0.9 91
2019-11-18 20:00:00 9.1 3 Sudeste 10 Sur 0 1016.1 0.6 90
2019-11-18 19:00:00 9.1 5 Sur 10 Sudeste 0 1015.8 0.5 92
2019-11-18 18:00:00 8.9 2 Sudeste 11 Sur 0 1015.5 0.3 93
2019-11-18 17:00:00 10.8 5 Sudoeste 14 Sudoeste 0.4 1015.5 0.3 85
2019-11-18 16:00:00 12.8 6 Sudoeste 14 Sur 0 1015.3 -0.3 71
2019-11-18 15:00:00 12.4 7 Sudoeste 16 Sur 0 1015.2 -0.4 78
2019-11-18 14:00:00 11.4 6 Sudoeste 13 Sudoeste 0 1015.2 -0.4 82
2019-11-18 13:00:00 10.7 4 Sudoeste 14 Sur 1 1015.6 0.4 89
2019-11-18 12:00:00 11.4 9 Sudoeste 19 Sudoeste 0 1015.6 1.1 78
2019-11-18 11:00:00 9.8 8 Sudoeste 19 Sur 0 1015.6 1.8 86
2019-11-18 10:00:00 9.2 6 Sudoeste 16 Sudoeste 0 1015.2 1.8 86
2019-11-18 09:00:00 8.3 5 Sudoeste 11 Sudoeste 0 1014.5 1.7 92
2019-11-18 08:00:00 7.9 2 Sudoeste 5 Sur 0 1013.8 1.5 96
2019-11-18 07:00:00 8.1 3 Oeste 12 Sudoeste 0 1013.4 1.6 93
2019-11-18 06:00:00 8.4 6 Sur 12 Sur 0.2 1012.8 1.3 94
2019-11-18 05:00:00 8.4 4 Oeste 8 Sudoeste 0 1012.3 0.9 94
2019-11-18 04:00:00 8.7 3 Oeste 11 Sur 0.2 1011.8 0.7 92
2019-11-18 03:00:00 8.6 6 Sur 15 Oeste 0 1011.5 0.9 94
2019-11-18 02:00:00 8.6 4 Sudoeste 14 Norte 0.2 1011.4 1.1 97
2019-11-18 01:00:00 8.4 5 Sudeste 9 Sudoeste 0 1011.1 1.1 97
2019-11-18 00:00:00 9.2 4 Sudoeste 17 Norte 0 1010.6 1.1 93
2019-11-17 23:00:00 10.1 10 Norte 23 Norte 0 1010.3 1.9 87
2019-11-17 22:00:00 8.6 4 Sudeste 8 Sudoeste 0.2 1010 4.4 97
2019-11-17 21:00:00 8.6 5 Sudoeste 9 Sur 0.8 1009.5 2.8 96
2019-11-17 20:00:00 8.6 4 Sur 36 Sudoeste 1.2 1008.4 1.6 94
2019-11-17 19:00:00 9.2 12 Sur 28 Sudoeste 1 1005.6 -1 85
2019-11-17 18:00:00 9.8 9 Sudoeste 27 Oeste 0 1006.7 0.6 83
2019-11-17 17:00:00 10.2 17 Oeste 40 Oeste 2 1006.8 0 85
2019-11-17 16:00:00 11 18 Oeste 35 Noroeste 0.4 1006.6 -0.6 78
2019-11-17 15:00:00 13.4 14 Oeste 35 Sudoeste 0 1006.1 -1.7 62
2019-11-17 14:00:00 11.9 13 Oeste 35 Oeste 0.4 1006.8 -0.4 70
2019-11-17 13:00:00 11.9 12 Sudoeste 32 Oeste 0 1007.2 0 72
2019-11-17 12:00:00 11.2 19 Oeste 39 Oeste 0.2 1007.8 0.6 82
2019-11-17 11:00:00 12.1 9 Sudoeste 30 Oeste 0 1007.2 0.5 79
2019-11-17 10:00:00 10.9 10 Oeste 19 Oeste 0.4 1007.2 0.9 92
2019-11-17 09:00:00 10.5 9 Oeste 22 Sur 0.2 1007.2 1.1 92
2019-11-17 08:00:00 10.3 6 Sudoeste 16 Oeste 0.2 1006.7 -0.2 91
2019-11-17 07:00:00 10.5 8 Sudoeste 18 Oeste 1 1006.3 -1.5 89
2019-11-17 06:00:00 10.3 6 Sudoeste 22 Sur 0 1006.1 -2.2 83
2019-11-17 05:00:00 11.7 8 Sur 21 Sur 0 1006.9 -1.9 70
2019-11-17 04:00:00 11.3 6 Sudoeste 16 Sudoeste 0 1007.8 -1.9 68
2019-11-17 03:00:00 11 6 Sudoeste 21 Sudoeste 0 1008.3 -1.9 69
2019-11-17 02:00:00 10.6 6 Sudoeste 15 Sudoeste 0 1008.8 -1.7 70
2019-11-17 01:00:00 10.4 6 Sur 17 Sudoeste 0 1009.7 -1.4 70
2019-11-17 00:00:00 10.4 8 Sudoeste 16 Sudoeste 0 1010.2 -1 68
2019-11-16 23:00:00 10.1 9 Sudoeste 20 Sudoeste 0 1010.5 -0.9 67
2019-11-16 22:00:00 9.7 7 Sudoeste 16 Sudoeste 0 1011.1 -0.5 68
2019-11-16 21:00:00 9.6 6 Sudoeste 17 Sudoeste 0 1011.2 -0.7 68
2019-11-16 20:00:00 9 5 Sudoeste 16 Sudoeste 0 1011.4 -0.2 72
2019-11-16 19:00:00 8.1 5 Sur 10 Sur 0.2 1011.6 0.1 84
2019-11-16 18:00:00 9 5 Noroeste 16 Sur 0.4 1011.9 1.1 85
2019-11-16 17:00:00 9.7 9 Sudoeste 28 Sudoeste 0 1011.6 0.2 72
2019-11-16 16:00:00 10.7 15 Oeste 38 Oeste 0 1011.5 0.2 68
2019-11-16 15:00:00 12 9 Sudoeste 22 Sudoeste 0 1010.8 -0.4 70
2019-11-16 14:00:00 9.9 9 Oeste 33 Oeste 0.2 1011.4 0.3 78
2019-11-16 13:00:00 10.8 18 Oeste 34 Oeste 0 1011.3 0.1 73
2019-11-16 12:00:00 10.1 12 Sudoeste 26 Oeste 0.6 1011.2 0.5 76
2019-11-16 11:00:00 9.9 10 Sudoeste 25 Sur 0 1011.1 0.9 74
2019-11-16 10:00:00 8.9 12 Sudoeste 24 Sudoeste 0 1011.2 1.5 77
2019-11-16 09:00:00 7.5 10 Sudoeste 28 Oeste 0.2 1010.7 1.3 84
2019-11-16 08:00:00 7.2 11 Sudoeste 30 Sur 0.2 1010.2 0.8 85
2019-11-16 07:00:00 6.9 13 Sudoeste 26 Sur 0.6 1009.7 0.1 90
2019-11-16 06:00:00 6.9 12 Sudoeste 31 Sudoeste 0 1009.4 0.2 88
2019-11-16 05:00:00 7 5 Sur 26 Sudoeste 0.2 1009.4 0.7 88
2019-11-16 04:00:00 7.1 8 Sudoeste 20 Sudoeste 0 1009.6 1.6 88
2019-11-16 03:00:00 6.6 9 Sur 18 Sur 2.8 1009.2 1.6 92
2019-11-16 02:00:00 6.5 6 Sur 19 Sur 0 1008.7 1.7 89
2019-11-16 01:00:00 6.5 5 Sudoeste 15 Sudoeste 0 1008 1.6 91
2019-11-16 00:00:00 6.5 9 Sudoeste 21 Sudoeste 0.8 1007.6 1.9 94
2019-11-15 23:00:00 6.4 6 Sudoeste 21 Sur 6.2 1007 1.2 93
2019-11-15 22:00:00 6.4 4 Sudoeste 18 Sur 2 1006.4 1.5 91
2019-11-15 21:00:00 6.7 8 Sur 19 Sudoeste 0 1005.7 1.7 90
2019-11-15 20:00:00 7.4 10 Norte 22 Nordeste 0.6 1005.8 2.4 88
2019-11-15 19:00:00 7.1 5 Sur 23 Norte 0 1004.9 1.8 87
2019-11-15 18:00:00 7.3 8 Oeste 17 Oeste 0 1004 0.7 87
2019-11-15 17:00:00 7.6 7 Sudoeste 27 Sudoeste 0 1003.4 0.4 89
2019-11-15 16:00:00 7.3 7 Sudoeste 39 Oeste 3.6 1003.1 0.1 89
2019-11-15 15:00:00 7.9 7 Oeste 41 Norte 0.8 1003.3 -0.3 91
2019-11-15 14:00:00 6.3 10 Sur 37 Sudoeste 1.2 1003 -0.9 93
2019-11-15 13:00:00 6.2 9 Sudoeste 32 Sur 5.6 1003 -0.3 93
2019-11-15 12:00:00 6.6 9 Sudoeste 27 Sudoeste 2 1003.6 0.8 91
2019-11-15 11:00:00 7 9 Oeste 42 Noroeste 4.6 1003.9 1.6 93
2019-11-15 10:00:00 9.4 16 Oeste 30 Oeste 0.4 1003.3 1.7 72
2019-11-15 09:00:00 9.5 20 Noroeste 50 Noroeste 0.4 1002.8 1.8 75
2019-11-15 08:00:00 9.6 33 Noroeste 58 Noroeste 0.2 1002.3 1.8 75
2019-11-15 07:00:00 10.5 28 Noroeste 66 Norte 0 1001.6 1.1 73
2019-11-15 06:00:00 10.6 32 Noroeste 54 Norte 0.2 1001 0.8 69
2019-11-15 05:00:00 9.4 27 Noroeste -- -- -- 1000.5 -0.1 85
2019-11-15 04:00:00 8.4 35 Noroeste 61 Noroeste 1.8 1000.5 0.4 88
2019-11-15 03:00:00 7.2 9 Sudoeste 33 Noroeste 2.4 1000.2 0.1 92
2019-11-15 02:00:00 7.5 10 Noroeste 59 Noroeste 3.2 1000.6 0.9 86
2019-11-15 01:00:00 8.9 17 Noroeste 41 Norte 0.8 1000.1 1 82
2019-11-15 00:00:00 7.6 8 Nordeste 28 Noroeste 3.4 1000.1 1.4 92
2019-11-14 23:00:00 7.3 6 Sur 24 Norte 3.6 999.7 1 95
2019-11-14 22:00:00 6.2 4 Sur 10 Norte 0 999.1 1.2 98
2019-11-14 21:00:00 5.8 0 Calma 10 Sur 0.2 998.7 1.4 96
2019-11-14 20:00:00 6.8 5 Sur 24 Noroeste 2 998.7 2.7 95
2019-11-14 19:00:00 7.3 6 Sudoeste 13 Sudeste 0.4 997.9 3.2 94
2019-11-14 18:00:00 7.5 7 Norte 20 Oeste 2.4 997.3 2.4 93
2019-11-14 17:00:00 7 5 Sudoeste 27 Sudoeste 6.6 996 2.2 94
2019-11-14 16:00:00 7.7 12 Sudoeste 27 Sudoeste 0.8 994.7 1.2 82
2019-11-14 15:00:00 8.8 12 Sudoeste 29 Sudoeste 0 994.9 0.3 70
2019-11-14 14:00:00 11.1 17 Oeste 38 Sudoeste 0 993.8 -1.8 59
2019-11-14 13:00:00 11.1 17 Sudoeste 36 Sudoeste 0 993.5 -3.2 56
2019-11-14 12:00:00 10.1 8 Oeste 22 Sudoeste 0 994.6 -3.3 61
2019-11-14 11:00:00 9.1 5 Sudoeste 20 Sudoeste 0 995.6 -3.3 59
2019-11-14 10:00:00 9 12 Oeste 29 Oeste 0 996.7 -2.4 58
2019-11-14 09:00:00 8.2 10 Sudoeste 29 Sudoeste 0 997.9 -2 63
2019-11-14 08:00:00 7.1 14 Sudoeste 31 Sur 0.2 998.9 -1.7 73
2019-11-14 07:00:00 7.4 14 Sudoeste 33 Sudoeste 0 999.1 -2.1 68
2019-11-14 06:00:00 7.8 14 Sudoeste 45 Sur 0 999.9 -2.3 72
2019-11-14 05:00:00 7.3 13 Sudoeste 30 Sudoeste 0 1000.6 -2.4 76
2019-11-14 04:00:00 6.8 10 Sur 37 Oeste 0.4 1001.2 -2 83
2019-11-14 03:00:00 7.1 13 Sudoeste 38 Sudoeste 2.2 1002.2 -0.5 91
2019-11-14 02:00:00 8.1 22 Oeste 39 Oeste 2.8 1003 -0.4 87
2019-11-14 01:00:00 8.3 18 Oeste 41 Oeste 5.2 1003.2 -0.2 89
2019-11-14 00:00:00 9 9 Oeste 39 Oeste 6.6 1002.7 0.5 94
2019-11-13 23:00:00 10.1 22 Oeste 66 Oeste 5.8 1003.4 0 91
2019-11-13 22:00:00 12 17 Oeste 37 Oeste 0.8 1003.4 -0.9 79
2019-11-13 21:00:00 14.1 16 Oeste 42 Oeste 0 1002.2 -3.9 56
2019-11-13 20:00:00 13.8 11 Sudoeste 24 Sudoeste 0 1003.4 -3.3 59
2019-11-13 19:00:00 13.5 9 Oeste 25 Oeste 0 1004.3 -3.7 61
2019-11-13 18:00:00 11.9 4 Sur 8 Sudoeste 0 1006.1 -2.9 84
2019-11-13 17:00:00 12.9 4 Sudoeste 20 Oeste 0 1006.7 -3 78
2019-11-13 16:00:00 13.5 13 Oeste 21 Oeste 0 1008 -2.7 71
2019-11-13 15:00:00 12.2 8 Sudoeste 27 Noroeste 0 1009 -2.1 82
2019-11-13 14:00:00 13.3 10 Oeste 21 Oeste 0 1009.7 -1.1 75
2019-11-13 13:00:00 12.6 5 Sudoeste 12 Oeste 0.2 1010.7 0 88
2019-11-13 12:00:00 12.4 4 Sudoeste 13 Oeste 0 1011.1 0.7 89
2019-11-13 11:00:00 12.5 4 Sudoeste 10 Oeste 0.2 1010.8 1.7 88
2019-11-13 10:00:00 11 2 Sudoeste 7 Sudoeste 0 1010.7 2.7 99
2019-11-13 09:00:00 10.7 3 Sur 5 Sur 1 1010.4 3.3 98
2019-11-13 08:00:00 10.6 2 Sudoeste 8 Este 0 1009.1 3.1 98
2019-11-13 07:00:00 11.1 5 Este 23 Nordeste 1 1008 2.9 91
2019-11-13 06:00:00 11.3 15 Nordeste 37 Norte 2 1007.1 2.9 94
2019-11-13 05:00:00 11.8 10 Nordeste 22 Nordeste 1.6 1006 2.9 95
2019-11-13 04:00:00 11.8 7 Norte 19 Nordeste 0.2 1005.1 3.4 95
2019-11-13 03:00:00 11.7 6 Nordeste 24 Norte 1.4 1004.2 3.2 99
2019-11-13 02:00:00 11.2 5 Norte 11 Norte 2.2 1003.1 1.9 99
2019-11-13 01:00:00 11.1 4 Este -- -- -- 1001.7 0 98
2019-11-13 00:00:00 11.2 6 Este 14 Este 0.6 1001 -1.2 97
2019-11-12 23:00:00 11.2 8 Este 14 Este 1 1001.2 -1.3 98
2019-11-12 22:00:00 10.9 9 Este 18 Sudeste 1.4 1001.7 -1.4 98
2019-11-12 21:00:00 11.1 5 Este -- -- -- 1002.2 -1.4 98
2019-11-12 20:00:00 11.1 3 Oeste 14 Sudeste 0.6 1002.5 -2.1 97
2019-11-12 19:00:00 11 10 Sudeste -- -- -- 1003.1 -2.6 96
2019-11-12 18:00:00 11.1 9 Este -- -- -- 1003.6 -3.9 94
2019-11-12 17:00:00 11.5 8 Este 15 Sudeste 2.8 1004.6 -4.4 92
2019-11-12 16:00:00 12.6 3 Nordeste -- -- -- 1005.7 -4.8 89
2019-11-12 15:00:00 13.4 3 Oeste 8 Oeste 0.2 1007.5 -4.3 77
2019-11-12 14:00:00 13.5 5 Sur 14 Sudoeste 0.2 1009 -3.4 75
2019-11-12 13:00:00 14.2 7 Sudoeste 22 Sudoeste 0 1010.5 -2.6 67
2019-11-12 12:00:00 13.7 9 Sudoeste 20 Sudoeste 0 1011.8 -1.6 65
2019-11-12 11:00:00 12.5 9 Sudoeste 19 Oeste 0 1012.4 -1.2 67
2019-11-12 10:00:00 11.3 7 Sudoeste 19 Oeste 0 1013.1 -0.7 73
2019-11-12 09:00:00 10.7 7 Sudoeste -- -- -- 1013.4 -- 74
2019-11-12 08:00:00 10.5 9 Sudoeste 23 Sur 0 1013.6 -- 75
2019-11-12 07:00:00 10.5 10 Sudoeste -- -- -- 1013.8 -1.4 75
2019-11-12 06:00:00 -- -- -- -- -- -- -- -- --
2019-11-12 05:00:00 -- -- -- -- -- -- -- -- --
2019-11-12 04:00:00 10.2 7 Sudoeste 19 Sudoeste 0.2 1015.2 -1.4 78
2019-11-12 03:00:00 10.3 10 Sudoeste 23 Sudoeste 0 1015.5 -- 77
2019-11-12 02:00:00 10.2 8 Sudoeste 22 Sudoeste 0 1016.3 -0.9 78
2019-11-12 01:00:00 10.5 7 Sudoeste -- -- -- 1016.6 -0.9 78
2019-11-12 00:00:00 -- -- -- -- -- -- -- -- --
2019-11-11 23:00:00 10.5 10 Sudoeste 21 Sur 0 1017.2 -0.6 78
2019-11-11 22:00:00 10.1 8 Sur 17 Sudoeste 0 1017.5 -0.1 80
2019-11-11 21:00:00 10 6 Sudoeste 14 Sur 0 1017.6 0.4 81
2019-11-11 20:00:00 10.2 5 Sur 14 Sudoeste 0 1017.8 0.8 82
2019-11-11 19:00:00 11.2 5 Sudoeste 10 Oeste 0 1017.6 0.5 76
2019-11-11 18:00:00 12.6 5 Oeste 15 Sudoeste 0 1017.2 0.2 68
2019-11-11 17:00:00 13.3 6 Oeste 24 Noroeste 0.2 1017 0.3 61
2019-11-11 16:00:00 13.9 6 Oeste 13 Sudoeste 0 1017.1 0.2 67
2019-11-11 15:00:00 12.2 4 Sudoeste 36 Norte 0 1017 -0.2 82
2019-11-11 14:00:00 13.7 9 Noroeste 19 Norte 0 1016.7 0.4 74
2019-11-11 13:00:00 12.7 6 Oeste 32 Noroeste 0 1016.9 1.6 71
2019-11-11 12:00:00 13.4 17 Noroeste 37 Noroeste 0 1017.2 3.1 66
2019-11-11 11:00:00 14 17 Noroeste 37 Noroeste 0 1016.3 3.8 74
2019-11-11 10:00:00 13.8 18 Noroeste 42 Noroeste 0.2 1015.3 4 82
2019-11-11 09:00:00 13.9 14 Noroeste 37 Noroeste 0.6 1014.1 2.5 88
2019-11-11 08:00:00 12 9 Sudoeste 25 Sur 1.8 1012.5 -0.1 97
2019-11-11 07:00:00 11.7 7 Sudoeste -- -- -- 1011.3 -1.8 97
2019-11-11 06:00:00 10.8 7 Sudoeste -- -- -- 1011.6 -2 96
2019-11-11 05:00:00 9.6 5 Sur 12 Sur 0 1012.6 -1.9 97
2019-11-11 04:00:00 8.9 3 Oeste 7 Oeste 0 1013.1 -2 95
2019-11-11 03:00:00 8.7 3 Norte 5 Oeste 0.4 1013.6 -1.6 95
2019-11-11 02:00:00 8.9 0 Calma 4 Noroeste 0.2 1014.5 -1 91
2019-11-11 01:00:00 9.7 3 Oeste 11 Sur 0 1015.1 -0.3 81
2019-11-11 00:00:00 9.7 4 Sur 12 Sur 0 1015.2 -0.6 79
2019-11-10 23:00:00 9.5 5 Sur 22 Sudoeste 0 1015.5 -0.8 80
2019-11-10 22:00:00 9.1 9 Sudoeste 18 Sudoeste 0 1015.4 -1.3 83
2019-11-10 21:00:00 9.2 8 Sudoeste 22 Sudoeste 0 1015.8 -0.5 82
2019-11-10 20:00:00 9.1 10 Sudoeste 27 Sudoeste 0.2 1016.3 0.2 87
2019-11-10 19:00:00 9.1 11 Sudoeste 24 Sur 0.2 1016.7 0.8 91
2019-11-10 18:00:00 9.2 8 Sur 29 Sudeste 1 1016.3 0 94
2019-11-10 17:00:00 9 7 Sudeste 31 Noroeste 3 1016.1 0.7 95
2019-11-10 16:00:00 10.1 7 Sudoeste 39 Noroeste 5 1015.9 0.3 94
2019-11-10 15:00:00 9.9 12 Noroeste 48 Noroeste 5 1016.3 0.4 85
2019-11-10 14:00:00 12.1 10 Oeste 52 Noroeste 0 1015.4 -0.8 72
2019-11-10 13:00:00 10.7 15 Noroeste -- -- -- 1015.6 0.4 76
2019-11-10 12:00:00 10.5 8 Sudoeste 45 Noroeste 0.4 1015.9 1.2 84
2019-11-10 11:00:00 10.5 13 Noroeste 45 Oeste 2.2 1016.2 1.4 84
2019-11-10 10:00:00 11.3 14 Oeste 33 Noroeste 1.6 1015.2 0.2 77
2019-11-10 09:00:00 9 8 Sur 20 Sur 0.4 1014.7 -0.9 90
2019-11-10 08:00:00 8.8 11 Sudoeste 24 Sudoeste 0.4 1014.8 -0.7 87
2019-11-10 07:00:00 8.6 11 Sudoeste 21 Sudoeste 0 1015 -0.7 86
2019-11-10 06:00:00 8.1 8 Sudoeste 21 Sudoeste 0 1015.6 -0.8 90
2019-11-10 05:00:00 8.1 9 Sudoeste 36 Sudoeste 1.2 1015.5 -0.9 89
2019-11-10 04:00:00 8.1 6 Sur 16 Sudoeste 0.2 1015.7 -0.9 92
2019-11-10 03:00:00 8.3 8 Sudoeste 23 Sur 2.8 1016.4 0.3 90
2019-11-10 02:00:00 8.1 6 Sur 19 Sur 2.2 1016.4 0.2 92
2019-11-10 01:00:00 8.7 7 Sudoeste 21 Sudoeste 0 1016.6 0.9 87
2019-11-10 00:00:00 9 8 Sur 32 Norte 0 1016.1 0.4 90
2019-11-09 23:00:00 9.9 10 Oeste 25 Oeste 1.2 1016.2 1.1 84
2019-11-09 22:00:00 10.6 10 Oeste 23 Oeste 0 1015.7 1.3 79
2019-11-09 21:00:00 10.2 15 Noroeste 49 Noroeste 0.4 1015.7 1.6 89
2019-11-09 20:00:00 11.1 13 Noroeste 37 Noroeste 3.4 1015.1 2.2 78
2019-11-09 19:00:00 11.6 15 Oeste 39 Oeste 2.4 1014.4 1.1 87
2019-11-09 18:00:00 11.1 14 Oeste 44 Oeste 3.4 1014.1 0.7 91
2019-11-09 17:00:00 13.7 10 Oeste 40 Oeste 0 1012.9 -0.5 66
2019-11-09 16:00:00 13.6 18 Oeste 45 Noroeste 0.2 1013.3 0 76
2019-11-09 15:00:00 14.5 23 Oeste 46 Oeste 0 1013.4 1.2 73
2019-11-09 14:00:00 14.2 19 Oeste 47 Oeste 0.2 1013.4 1.2 79
2019-11-09 13:00:00 14.2 21 Oeste 39 Noroeste 0 1013.3 1.1 87
2019-11-09 12:00:00 16.8 10 Sudoeste 22 Sudoeste 0 1012.2 -0.1 65
2019-11-09 11:00:00 14.1 11 Sudoeste 31 Sur 0 1012.2 -1.2 72
2019-11-09 10:00:00 13 10 Sudoeste 26 Sur 0 1012.2 -1.9 75
2019-11-09 09:00:00 10.4 6 Sur 16 Sur 0.2 1012.3 -2.8 89
2019-11-09 08:00:00 9.6 7 Sur 14 Sur 1 1013.4 -2 89
2019-11-09 07:00:00 10.5 7 Sur 17 Sudoeste 0 1014.1 -2 74
2019-11-09 06:00:00 11 5 Sudoeste 17 Sudoeste 0 1015.1 -1.3 68
2019-11-09 05:00:00 10.8 8 Sur 20 Sur 0 1015.4 -1.4 70
2019-11-09 04:00:00 10.6 8 Sudoeste 17 Sudoeste 0 1016.1 -1.5 73
2019-11-09 03:00:00 10.4 6 Sudoeste 19 Sur 0 1016.4 -1.1 74
2019-11-09 02:00:00 10 8 Sudoeste 16 Sudoeste 0 1016.8 -1 77
2019-11-09 01:00:00 9.8 6 Sudoeste 19 Sudoeste 0 1017.6 -0.5 80
2019-11-09 00:00:00 9.2 5 Sur 17 Sudoeste 0.8 1017.5 -0.2 88
2019-11-08 23:00:00 9.2 10 Sudoeste 22 Sur 0.2 1017.8 0.2 89
2019-11-08 22:00:00 9 5 Sudoeste 19 Sudoeste 0.8 1018.1 1.1 93
2019-11-08 21:00:00 9 3 Oeste 18 Noroeste 4.6 1017.7 1.4 94
2019-11-08 20:00:00 9.2 13 Noroeste 22 Noroeste 3.4 1017.6 1.9 93
2019-11-08 19:00:00 9.7 9 Oeste 19 Sudoeste 0.2 1017 1.8 89
2019-11-08 18:00:00 9.5 12 Sudoeste 30 Sur 1.2 1016.3 1.8 89
2019-11-08 17:00:00 10.5 9 Sudoeste 37 Oeste 0.8 1015.7 1.8 83
2019-11-08 16:00:00 10.8 12 Sudoeste 29 Sur 0 1015.2 0.9 82
2019-11-08 15:00:00 11.5 12 Sudoeste 34 Oeste 1.2 1014.5 1 80
2019-11-08 14:00:00 13 17 Oeste 54 Oeste 0.6 1013.9 1.5 70
2019-11-08 13:00:00 12.4 13 Oeste 41 Noroeste 0.2 1014.3 2.1 72
2019-11-08 12:00:00 12 17 Oeste 46 Oeste 0.8 1013.5 2.9 75
2019-11-08 11:00:00 11.1 13 Oeste 36 Oeste 0 1012.4 2.3 70
2019-11-08 10:00:00 8.6 10 Sudoeste 27 Sudoeste 2.6 1012.2 3 90
2019-11-08 09:00:00 7.9 11 Sudoeste 30 Sudoeste 2.6 1010.6 1.9 91
2019-11-08 08:00:00 7.6 14 Sudoeste 31 Sudoeste 2.6 1010.1 1.9 88
2019-11-08 07:00:00 8 12 Sudoeste 34 Sudoeste 1.2 1009.2 1.1 85
2019-11-08 06:00:00 7.7 12 Sudoeste 32 Sudoeste 3 1008.7 0.9 87
2019-11-08 05:00:00 7.3 10 Sudoeste 30 Sur 4.2 1008.2 0.8 89
2019-11-08 04:00:00 7.4 10 Sudoeste 33 Sudoeste 2.8 1008.1 0.3 89
2019-11-08 03:00:00 7.2 13 Sudoeste 40 Sudoeste 1.2 1007.8 0.8 89
2019-11-08 02:00:00 7.4 14 Sudoeste 35 Sudoeste 1.6 1007.4 0.5 85
2019-11-08 01:00:00 7.7 12 Sudoeste 32 Sudoeste 1.2 1007.8 1.3 83
2019-11-08 00:00:00 8.1 12 Sudoeste 42 Oeste 0.4 1007 0.2 78